This is the latest recevied weather packets stored in our database for station/object KA6AKH-13. If no packets are shown the sender has not sent any weather packets the latest 10 day(s).
| Time | Temp. | Humidity | Pressure | Rain* | Wind** | Luminosity | Snow |
|---|---|---|---|---|---|---|---|
| 1777926235 | 26.11° C | 30% | 1009.8 hPa | 0 mm | - | - | - |
| 1777925606 | 26.11° C | 29% | 1009.9 hPa | 0 mm | - | - | - |
| 1777923745 | 26.11° C | 29% | 1010.2 hPa | 0 mm | - | - | - |
| 1777923145 | 26.11° C | 30% | 1010.4 hPa | 0 mm | - | - | - |
| 1777922545 | 26.11° C | 30% | 1010.6 hPa | 0 mm | - | - | - |
| 1777921915 | 25.56° C | 32% | 1010.8 hPa | 0 mm | - | - | - |
| 1777921315 | 25.56° C | 31% | 1011 hPa | 0 mm | - | - | - |
| 1777920685 | 26.11° C | 30% | 1011.3 hPa | 0 mm | - | - | - |
| 1777918855 | 25° C | 33% | 1011.8 hPa | 0 mm | - | - | - |
| 1777917625 | 25° C | 32% | 1012.1 hPa | 0 mm | - | - | - |
| 1777916425 | 24.44° C | 34% | 1012.4 hPa | 0 mm | - | - | - |
| 1777915196 | 23.89° C | 34% | 1012.6 hPa | 0 mm | - | - | - |
| 1777914044 | 23.89° C | 37% | 1012.8 hPa | 0 mm | - | - | - |
| 1777913965 | 23.89° C | 37% | 1012.8 hPa | 0 mm | - | - | - |
| 1777912705 | 22.78° C | 38% | 1013.2 hPa | 0 mm | - | - | - |
| 1777912105 | 22.78° C | 38% | 1013.2 hPa | 0 mm | - | - | - |
| 1777910876 | 21.67° C | 41% | 1013.6 hPa | 0 mm | - | - | - |
| 1777909763 | 20.56° C | 42% | 1013.9 hPa | 0 mm | - | - | - |
| 1777909645 | 20.56° C | 42% | 1013.9 hPa | 0 mm | - | - | - |
| 1777909136 | 20.56° C | 41% | 1013.8 hPa | 0 mm | - | - | - |
| 1777909017 | 20.56° C | 41% | 1013.8 hPa | 0 mm | - | - | - |
| 1777908385 | 20° C | 42% | 1014 hPa | 0 mm | - | - | - |
| 1777907755 | 20° C | 40% | 1014.1 hPa | 0 mm | - | - | - |
| 1777906525 | 18.89° C | 43% | 1014.1 hPa | 0 mm | - | - | - |
| 1777904695 | 17.22° C | 47% | 1014.2 hPa | 0 mm | - | - | - |
* Rain latest hour (hover to see other rain measurements)
** Current wind speed in m/s (hover to see current wind gust speed)